createdAt,value
2023-04-21T00:02:07.569Z,10.57
2023-04-21T00:04:37.155Z,10.42
2023-04-21T00:07:06.750Z,10.54
2023-04-21T00:09:38.815Z,10.69
2023-04-21T00:12:08.459Z,10.56
2023-04-21T00:14:38.480Z,10.38
2023-04-21T00:17:08.142Z,10.65
2023-04-21T00:19:37.946Z,10.60
2023-04-21T00:22:12.153Z,10.71
2023-04-21T00:24:44.292Z,10.43
2023-04-21T00:27:15.681Z,10.42
2023-04-21T00:29:45.258Z,10.26
2023-04-21T00:32:14.918Z,10.20
2023-04-21T00:34:44.324Z,10.34
2023-04-21T00:37:13.729Z,10.45
2023-04-21T00:39:45.680Z,10.37
2023-04-21T00:42:18.205Z,10.27
2023-04-21T00:44:47.736Z,10.37
2023-04-21T00:47:17.056Z,10.47
2023-04-21T00:49:46.427Z,10.14
2023-04-21T00:52:17.306Z,10.39
2023-04-21T00:54:49.467Z,10.31
2023-04-21T00:57:19.202Z,10.45
2023-04-21T00:59:49.959Z,10.45
2023-04-21T01:02:20.051Z,10.40
2023-04-21T01:04:49.829Z,10.05
2023-04-21T01:07:19.236Z,10.09
2023-04-21T01:09:51.296Z,10.09
2023-04-21T01:12:20.621Z,9.87
2023-04-21T01:14:50.728Z,10.02
2023-04-21T01:17:20.636Z,9.89
2023-04-21T01:19:50.348Z,9.79
2023-04-21T01:22:22.340Z,10.02
2023-04-21T01:24:52.113Z,10.03
2023-04-21T01:27:23.425Z,9.79
2023-04-21T01:29:59.274Z,9.71
2023-04-21T01:32:32.031Z,10.10
2023-04-21T01:35:02.768Z,9.98
2023-04-21T01:37:36.107Z,9.89
2023-04-21T01:40:09.807Z,10.08
2023-04-21T01:42:42.849Z,9.97
2023-04-21T01:45:13.591Z,10.00
2023-04-21T01:47:43.217Z,9.84
2023-04-21T01:50:13.465Z,9.97
2023-04-21T01:52:45.464Z,9.79
2023-04-21T01:55:14.979Z,10.06
2023-04-21T01:57:44.341Z,9.79
2023-04-21T02:00:15.189Z,9.62
2023-04-21T02:02:44.714Z,9.75
2023-04-21T02:05:14.299Z,9.74
2023-04-21T02:07:46.527Z,9.83
2023-04-21T02:10:16.262Z,10.01
2023-04-21T02:12:45.645Z,10.02
2023-04-21T02:15:15.420Z,9.97
2023-04-21T02:17:45.582Z,9.90
2023-04-21T02:20:15.304Z,10.14
2023-04-21T02:22:47.270Z,10.13
2023-04-21T02:25:16.701Z,9.96
2023-04-21T02:27:46.066Z,9.83
2023-04-21T02:30:15.691Z,9.95
2023-04-21T02:32:45.327Z,10.18
2023-04-21T02:35:14.836Z,9.97
2023-04-21T02:37:46.883Z,10.06
2023-04-21T02:40:16.675Z,9.76
2023-04-21T02:42:46.122Z,10.02
2023-04-21T02:45:15.817Z,10.14
2023-04-21T02:47:45.355Z,9.93
2023-04-21T02:50:16.720Z,9.93
2023-04-21T02:52:48.733Z,9.96
2023-04-21T02:55:18.158Z,10.10
2023-04-21T02:57:47.772Z,9.88
2023-04-21T03:00:18.115Z,9.80
2023-04-21T03:02:47.650Z,9.72
2023-04-21T03:05:17.835Z,9.79
2023-04-21T03:07:50.181Z,9.71
2023-04-21T03:10:19.716Z,9.80
2023-04-21T03:12:49.134Z,10.01
2023-04-21T03:15:19.693Z,9.95
2023-04-21T03:17:49.134Z,9.83
2023-04-21T03:20:18.518Z,9.82
2023-04-21T03:22:50.492Z,9.50
2023-04-21T03:25:19.865Z,9.80
2023-04-21T03:27:49.274Z,9.93
2023-04-21T03:30:18.867Z,9.86
2023-04-21T03:32:48.239Z,9.94
2023-04-21T03:35:17.618Z,10.09
2023-04-21T03:37:47.353Z,10.06
2023-04-21T03:40:19.505Z,9.91
2023-04-21T03:42:49.004Z,10.02
2023-04-21T03:45:19.741Z,10.07
2023-04-21T03:47:49.126Z,10.09
2023-04-21T03:50:18.492Z,9.96
2023-04-21T03:52:47.795Z,9.81
2023-04-21T03:55:19.979Z,9.63
2023-04-21T03:57:49.373Z,9.33
2023-04-21T04:00:19.900Z,9.41
2023-04-21T04:02:49.449Z,9.43
2023-04-21T04:05:19.025Z,9.59
2023-04-21T04:07:48.433Z,9.40
2023-04-21T04:10:20.354Z,9.69
2023-04-21T04:12:49.688Z,9.55
2023-04-21T04:15:19.055Z,9.74
2023-04-21T04:17:50.248Z,9.54
2023-04-21T04:20:19.935Z,9.52
2023-04-21T04:22:49.298Z,9.60
2023-04-21T04:25:21.589Z,9.50
2023-04-21T04:27:51.848Z,9.80
2023-04-21T04:30:24.094Z,9.64
2023-04-21T04:32:53.443Z,9.50
2023-04-21T04:35:23.070Z,9.44
2023-04-21T04:37:52.525Z,9.73
2023-04-21T04:40:24.653Z,9.65
2023-04-21T04:42:55.035Z,9.45
2023-04-21T04:45:26.373Z,9.51
2023-04-21T04:47:55.715Z,9.26
2023-04-21T04:50:25.077Z,9.44
2023-04-21T04:52:54.556Z,9.37
2023-04-21T04:55:30.732Z,9.29
2023-04-21T04:58:00.125Z,9.39
2023-04-21T05:00:29.508Z,9.40
2023-04-21T05:02:59.034Z,9.34
2023-04-21T05:05:28.703Z,9.71
2023-04-21T05:07:58.076Z,9.58
2023-04-21T05:10:29.995Z,9.38
2023-04-21T05:12:59.428Z,9.24
2023-04-21T05:15:28.982Z,9.37
2023-04-21T05:17:58.706Z,9.51
2023-04-21T05:20:28.491Z,9.39
2023-04-21T05:22:57.791Z,9.35
2023-04-21T05:25:30.158Z,9.63
2023-04-21T05:27:59.783Z,9.45
2023-04-21T05:30:29.350Z,9.46
2023-04-21T05:33:04.799Z,9.53
2023-04-21T05:35:36.571Z,9.48
2023-04-21T05:38:07.259Z,9.47
2023-04-21T05:40:39.241Z,9.76
2023-04-21T05:43:10.466Z,9.38
2023-04-21T05:45:42.239Z,9.47
2023-04-21T05:48:13.464Z,9.49
2023-04-21T05:50:43.125Z,9.54
2023-04-21T05:53:12.553Z,9.66
2023-04-21T05:55:44.479Z,9.60
2023-04-21T05:58:13.907Z,9.52
2023-04-21T06:00:43.274Z,9.58
2023-04-21T06:03:12.877Z,9.82
2023-04-21T06:05:42.377Z,9.72
2023-04-21T06:08:11.794Z,9.79
2023-04-21T06:10:44.080Z,9.88
2023-04-21T06:13:13.405Z,9.95
2023-04-21T06:15:42.856Z,10.07
2023-04-21T06:18:12.302Z,9.97
2023-04-21T06:20:42.209Z,9.73
2023-04-21T06:23:11.656Z,9.89
2023-04-21T06:25:41.016Z,9.90
2023-04-21T06:28:12.939Z,9.95
2023-04-21T06:30:42.511Z,9.84
2023-04-21T06:33:11.833Z,10.11
2023-04-21T06:35:41.200Z,10.10
2023-04-21T06:38:11.359Z,10.15
2023-04-21T06:40:40.813Z,10.20
2023-04-21T06:43:12.726Z,10.21
2023-04-21T06:45:42.059Z,10.20
2023-04-21T06:48:11.434Z,10.35
2023-04-21T06:50:41.258Z,10.37
2023-04-21T06:53:12.879Z,10.46
2023-04-21T06:55:42.199Z,10.60
2023-04-21T06:58:14.128Z,10.61
2023-04-21T07:00:43.612Z,10.66
2023-04-21T07:03:13.160Z,10.72
2023-04-21T07:05:42.670Z,10.71
2023-04-21T07:08:12.020Z,10.76
2023-04-21T07:10:41.679Z,10.84
2023-04-21T07:13:11.173Z,10.94
2023-04-21T07:15:43.180Z,10.99
2023-04-21T07:18:12.546Z,11.00
2023-04-21T07:20:42.145Z,11.21
2023-04-21T07:23:11.692Z,11.24
2023-04-21T07:25:41.143Z,11.39
2023-04-21T07:28:11.245Z,11.40
2023-04-21T07:30:43.310Z,11.48
2023-04-21T07:33:12.749Z,11.44
2023-04-21T07:35:42.157Z,11.56
2023-04-21T07:38:12.156Z,11.67
2023-04-21T07:40:41.626Z,11.92
2023-04-21T07:43:11.157Z,11.67
2023-04-21T07:45:43.137Z,11.82
2023-04-21T07:48:12.456Z,11.96
2023-04-21T07:50:42.673Z,12.09
2023-04-21T07:53:12.040Z,12.02
2023-04-21T07:55:41.454Z,12.28
2023-04-21T07:58:11.102Z,12.31
2023-04-21T08:00:43.131Z,12.55
2023-04-21T08:03:12.588Z,12.73
2023-04-21T08:05:42.348Z,12.96
2023-04-21T08:08:12.236Z,13.00
2023-04-21T08:10:41.623Z,13.24
2023-04-21T08:13:11.184Z,13.25
2023-04-21T08:15:43.404Z,13.57
2023-04-21T08:18:12.792Z,13.66
2023-04-21T08:20:42.135Z,13.59
2023-04-21T08:23:11.676Z,13.55
2023-04-21T08:25:41.061Z,14.16
2023-04-21T08:28:10.656Z,13.96
2023-04-21T08:30:43.305Z,13.95
2023-04-21T08:33:14.051Z,14.18
2023-04-21T08:35:55.026Z,14.00
2023-04-21T08:38:31.058Z,14.56
2023-04-21T08:41:04.462Z,14.34
2023-04-21T08:43:34.007Z,14.69
2023-04-21T08:46:10.268Z,14.61
2023-04-21T08:48:41.205Z,14.81
2023-04-21T08:51:12.590Z,15.08
2023-04-21T08:53:44.783Z,14.90
2023-04-21T08:56:14.245Z,15.34
2023-04-21T08:58:44.167Z,15.14
2023-04-21T09:01:16.453Z,15.02
2023-04-21T09:03:46.383Z,15.68
2023-04-21T09:06:16.725Z,15.39
2023-04-21T09:08:56.237Z,15.69
2023-04-21T09:11:26.303Z,16.03
2023-04-21T09:14:00.521Z,15.94
2023-04-21T09:16:35.902Z,16.32
2023-04-21T09:19:05.695Z,16.25
2023-04-21T09:21:35.203Z,16.14
2023-04-21T09:24:08.750Z,15.77
2023-04-21T09:26:38.390Z,16.39
2023-04-21T09:29:09.635Z,16.05
2023-04-21T09:31:42.352Z,16.56
2023-04-21T09:34:21.312Z,16.64
2023-04-21T09:36:50.961Z,16.87
2023-04-21T09:39:38.242Z,16.96
2023-04-21T09:42:13.641Z,16.94
2023-04-21T09:44:50.921Z,16.81
2023-04-21T09:47:32.398Z,17.38
2023-04-21T09:50:02.741Z,16.68
2023-04-21T09:52:33.808Z,17.04
2023-04-21T09:55:04.709Z,17.13
2023-04-21T09:57:35.510Z,17.51
2023-04-21T10:00:08.753Z,17.15
2023-04-21T10:02:46.284Z,17.14
2023-04-21T10:05:16.165Z,17.11
2023-04-21T10:07:47.340Z,17.34
2023-04-21T10:10:23.093Z,17.93
2023-04-21T10:12:53.710Z,17.93
2023-04-21T10:15:35.000Z,17.14
2023-04-21T10:18:18.874Z,17.85
2023-04-21T10:20:56.531Z,18.02
2023-04-21T10:23:34.406Z,17.99
2023-04-21T10:26:14.008Z,18.20
2023-04-21T10:28:57.468Z,17.84
2023-04-21T10:31:34.291Z,17.98
2023-04-21T10:34:24.350Z,18.28
2023-04-21T10:37:16.434Z,18.20
2023-04-21T10:39:48.505Z,17.92
2023-04-21T10:42:29.178Z,17.94
2023-04-21T10:45:19.336Z,17.75
2023-04-21T10:47:51.631Z,18.23
2023-04-21T10:50:26.258Z,18.40
2023-04-21T10:52:58.552Z,18.23
2023-04-21T10:55:32.671Z,18.14
2023-04-21T10:58:05.819Z,18.38
2023-04-21T11:00:36.069Z,18.14
2023-04-21T11:03:08.137Z,18.04
2023-04-21T11:05:42.645Z,18.06
2023-04-21T11:08:16.792Z,18.19
2023-04-21T11:10:56.055Z,18.32
2023-04-21T11:13:27.361Z,17.97
2023-04-21T11:16:04.733Z,18.11
2023-04-21T11:18:41.992Z,18.44
2023-04-21T11:21:22.210Z,18.11
2023-04-21T11:23:56.337Z,18.28
2023-04-21T11:26:36.928Z,18.36
2023-04-21T11:29:08.334Z,18.38
2023-04-21T11:31:38.930Z,18.46
2023-04-21T11:34:09.537Z,18.62
2023-04-21T11:36:43.941Z,18.81
2023-04-21T11:39:16.014Z,18.64
2023-04-21T11:41:47.216Z,18.37
2023-04-21T11:44:32.998Z,18.62
2023-04-21T11:47:02.866Z,18.57
2023-04-21T11:49:32.550Z,18.63
2023-04-21T11:52:04.757Z,18.72
2023-04-21T11:54:34.403Z,19.08
2023-04-21T11:57:04.110Z,18.93
2023-04-21T11:59:34.683Z,18.81
2023-04-21T12:02:04.331Z,18.73
2023-04-21T12:04:34.955Z,18.71
2023-04-21T12:07:07.245Z,18.81
2023-04-21T12:09:39.435Z,19.32
2023-04-21T12:12:09.258Z,19.10
2023-04-21T12:14:39.591Z,18.95
2023-04-21T12:17:09.978Z,19.01
2023-04-21T12:19:42.020Z,19.12
2023-04-21T12:22:15.173Z,19.18
2023-04-21T12:24:45.275Z,19.12
2023-04-21T12:27:15.844Z,19.18
2023-04-21T12:29:45.463Z,19.19
2023-04-21T12:32:15.260Z,19.16
2023-04-21T12:34:44.817Z,19.33
2023-04-21T12:37:17.073Z,19.13
2023-04-21T12:39:46.714Z,19.24
2023-04-21T12:42:16.744Z,19.30
2023-04-21T12:44:46.490Z,19.34
2023-04-21T12:47:16.136Z,19.20
2023-04-21T12:49:45.801Z,19.27
2023-04-21T12:52:17.986Z,19.23
2023-04-21T12:54:47.600Z,19.22
2023-04-21T12:57:17.841Z,19.29
2023-04-21T12:59:47.574Z,19.25
2023-04-21T13:02:17.306Z,19.26
2023-04-21T13:04:47.102Z,19.28
2023-04-21T13:07:21.526Z,19.40
2023-04-21T13:09:51.136Z,19.49
2023-04-21T13:12:20.721Z,19.43
2023-04-21T13:14:50.495Z,19.42
2023-04-21T13:17:20.399Z,19.28
2023-04-21T13:19:50.151Z,19.34
2023-04-21T13:22:22.461Z,19.49
2023-04-21T13:24:52.062Z,19.47
2023-04-21T13:27:21.694Z,19.28
2023-04-21T13:29:51.267Z,19.14
2023-04-21T13:32:21.754Z,19.29
2023-04-21T13:34:51.396Z,19.35
2023-04-21T13:37:23.591Z,19.33
2023-04-21T13:39:53.193Z,19.40
2023-04-21T13:42:22.768Z,19.27
2023-04-21T13:44:52.101Z,19.16
2023-04-21T13:47:21.502Z,19.30
2023-04-21T13:49:51.634Z,19.21
2023-04-21T13:52:23.675Z,19.35
2023-04-21T13:54:53.733Z,19.34
2023-04-21T13:57:25.050Z,19.41
2023-04-21T13:59:55.167Z,19.36
2023-04-21T14:02:25.924Z,19.45
2023-04-21T14:04:56.572Z,19.45
2023-04-21T14:07:28.937Z,19.46
2023-04-21T14:09:58.341Z,19.64
2023-04-21T14:12:28.274Z,19.44
2023-04-21T14:14:57.658Z,19.54
2023-04-21T14:17:27.099Z,19.53
2023-04-21T14:19:56.481Z,19.49
2023-04-21T14:22:29.316Z,19.53
2023-04-21T14:24:58.778Z,19.45
2023-04-21T14:27:28.159Z,19.56
2023-04-21T14:29:59.486Z,19.54
2023-04-21T14:32:29.027Z,19.52
2023-04-21T14:34:59.373Z,19.61
2023-04-21T14:37:31.338Z,19.61
2023-04-21T14:40:01.126Z,19.54
2023-04-21T14:42:30.637Z,19.56
2023-04-21T14:45:00.007Z,19.64
2023-04-21T14:47:29.461Z,19.58
2023-04-21T14:49:58.869Z,19.59
2023-04-21T14:52:31.078Z,19.61
2023-04-21T14:55:01.298Z,19.62
2023-04-21T14:57:30.756Z,19.56
2023-04-21T15:00:00.372Z,19.48
2023-04-21T15:02:30.941Z,19.51
2023-04-21T15:05:03.778Z,19.56
2023-04-21T15:07:36.224Z,19.57
2023-04-21T15:10:05.812Z,19.67
2023-04-21T15:12:36.584Z,19.64
2023-04-21T15:15:06.725Z,19.60
2023-04-21T15:17:36.194Z,19.58
2023-04-21T15:20:05.745Z,19.54
2023-04-21T15:22:37.963Z,19.60
2023-04-21T15:25:08.249Z,19.62
2023-04-21T15:27:37.596Z,19.52
2023-04-21T15:30:07.800Z,19.63
2023-04-21T15:32:37.171Z,19.57
2023-04-21T15:35:07.354Z,19.61
2023-04-21T15:37:39.304Z,19.66
2023-04-21T15:40:12.282Z,19.69
2023-04-21T15:42:41.646Z,19.62
2023-04-21T15:45:12.510Z,19.62
2023-04-21T15:47:41.973Z,19.65
2023-04-21T15:50:12.099Z,19.67
2023-04-21T15:52:44.575Z,19.69
2023-04-21T15:55:15.409Z,19.64
2023-04-21T15:57:45.186Z,19.61
2023-04-21T16:00:16.768Z,19.58
2023-04-21T16:02:46.525Z,19.58
2023-04-21T16:05:16.481Z,19.55
2023-04-21T16:07:48.823Z,19.56
2023-04-21T16:10:18.549Z,19.60
2023-04-21T16:12:51.092Z,19.61
2023-04-21T16:15:24.413Z,19.62
2023-04-21T16:17:54.750Z,19.58
2023-04-21T16:20:24.449Z,19.55
2023-04-21T16:22:56.755Z,19.57
2023-04-21T16:25:27.413Z,19.58
2023-04-21T16:27:57.235Z,19.58
2023-04-21T16:30:27.121Z,19.53
2023-04-21T16:32:56.806Z,19.56
2023-04-21T16:35:26.637Z,19.54
2023-04-21T16:37:59.508Z,19.52
2023-04-21T16:40:29.356Z,19.54
2023-04-21T16:42:59.008Z,19.47
2023-04-21T16:45:28.737Z,19.50
2023-04-21T16:47:58.656Z,19.48
2023-04-21T16:50:29.634Z,19.49
2023-04-21T16:53:03.418Z,19.43
2023-04-21T16:55:33.114Z,19.47
2023-04-21T16:58:02.665Z,19.44
2023-04-21T17:00:32.957Z,19.42
2023-04-21T17:03:02.654Z,19.44
2023-04-21T17:05:32.277Z,19.43
2023-04-21T17:08:05.624Z,19.46
2023-04-21T17:10:35.194Z,19.45
2023-04-21T17:13:06.214Z,19.44
2023-04-21T17:15:36.230Z,19.34
2023-04-21T17:18:05.940Z,19.36
2023-04-21T17:20:35.686Z,19.38
2023-04-21T17:23:08.110Z,19.38
2023-04-21T17:25:38.254Z,19.30
2023-04-21T17:28:08.307Z,19.23
2023-04-21T17:30:37.865Z,19.33
2023-04-21T17:33:15.898Z,19.13
2023-04-21T17:36:02.245Z,19.23
2023-04-21T17:38:35.493Z,19.34
2023-04-21T17:41:06.991Z,19.25
2023-04-21T17:43:36.961Z,19.23
2023-04-21T17:46:08.299Z,19.26
2023-04-21T17:48:38.127Z,19.23
2023-04-21T17:51:07.856Z,19.20
2023-04-21T17:53:40.164Z,19.21
2023-04-21T17:56:11.549Z,19.18
2023-04-21T17:58:41.535Z,19.07
2023-04-21T18:01:11.398Z,19.07
2023-04-21T18:03:42.384Z,19.04
2023-04-21T18:06:16.096Z,19.08
2023-04-21T18:08:48.320Z,19.09
2023-04-21T18:11:17.946Z,19.08
2023-04-21T18:13:47.583Z,19.05
2023-04-21T18:16:17.332Z,19.05
2023-04-21T18:18:48.941Z,18.98
2023-04-21T18:21:18.728Z,19.05
2023-04-21T18:23:51.195Z,19.04
2023-04-21T18:26:20.960Z,19.01
2023-04-21T18:28:50.675Z,19.00
2023-04-21T18:31:21.841Z,18.98
2023-04-21T18:33:51.541Z,18.89
2023-04-21T18:36:21.089Z,18.98
2023-04-21T18:38:53.262Z,18.99
2023-04-21T18:41:22.866Z,18.97
2023-04-21T18:43:52.339Z,19.02
2023-04-21T18:46:21.994Z,18.92
2023-04-21T18:48:51.573Z,18.84
2023-04-21T18:51:21.114Z,18.83
2023-04-21T18:53:53.261Z,18.84
2023-04-21T18:56:22.714Z,18.38
2023-04-21T18:58:52.188Z,18.46
2023-04-21T19:01:22.145Z,18.31
2023-04-21T19:03:51.855Z,18.46
2023-04-21T19:06:21.668Z,18.49
2023-04-21T19:08:53.865Z,18.14
2023-04-21T19:11:23.467Z,18.28
2023-04-21T19:13:52.922Z,18.27
2023-04-21T19:16:23.055Z,18.17
2023-04-21T19:18:52.704Z,18.28
2023-04-21T19:21:22.224Z,18.09
2023-04-21T19:23:55.122Z,18.00
2023-04-21T19:26:24.702Z,18.18
2023-04-21T19:28:54.753Z,18.20
2023-04-21T19:31:24.611Z,17.90
2023-04-21T19:33:54.235Z,18.24
2023-04-21T19:36:23.912Z,18.14
2023-04-21T19:38:56.030Z,17.93
2023-04-21T19:41:25.558Z,17.87
2023-04-21T19:43:55.022Z,17.96
2023-04-21T19:46:25.612Z,17.84
2023-04-21T19:48:55.105Z,18.02
2023-04-21T19:51:24.627Z,17.85
2023-04-21T19:54:10.169Z,17.92
2023-04-21T19:56:41.340Z,18.03
2023-04-21T19:59:11.052Z,17.68
2023-04-21T20:01:40.585Z,17.87
2023-04-21T20:04:12.093Z,17.74
2023-04-21T20:06:42.437Z,17.87
2023-04-21T20:09:14.503Z,18.02
2023-04-21T20:11:44.159Z,17.99
2023-04-21T20:14:13.898Z,17.91
2023-04-21T20:16:45.664Z,17.74
2023-04-21T20:19:17.445Z,17.73
2023-04-21T20:21:47.029Z,17.62
2023-04-21T20:24:19.436Z,17.74
2023-04-21T20:26:48.972Z,17.87
2023-04-21T20:29:18.826Z,17.78
2023-04-21T20:31:48.477Z,17.81
2023-04-21T20:34:18.026Z,17.64
2023-04-21T20:36:47.743Z,17.86
2023-04-21T20:39:20.773Z,17.84
2023-04-21T20:42:00.941Z,17.73
2023-04-21T20:44:38.893Z,17.84
2023-04-21T20:47:08.659Z,17.57
2023-04-21T20:49:38.470Z,17.46
2023-04-21T20:52:08.507Z,17.35
2023-04-21T20:54:40.898Z,17.53
2023-04-21T20:57:12.322Z,17.33
2023-04-21T20:59:41.971Z,17.39
2023-04-21T21:02:11.740Z,17.47
2023-04-21T21:04:41.552Z,17.39
2023-04-21T21:07:11.240Z,17.33
2023-04-21T21:09:43.468Z,17.31
2023-04-21T21:12:12.979Z,17.17
2023-04-21T21:14:42.768Z,17.51
2023-04-21T21:17:13.316Z,17.59
2023-04-21T21:19:43.389Z,17.48
2023-04-21T21:22:12.856Z,17.34
2023-04-21T21:24:45.001Z,17.32
2023-04-21T21:27:15.004Z,17.32
2023-04-21T21:29:45.156Z,17.46
2023-04-21T21:32:14.650Z,17.36
2023-04-21T21:34:44.145Z,17.36
2023-04-21T21:37:13.712Z,17.30
2023-04-21T21:39:45.797Z,17.46
2023-04-21T21:42:15.674Z,16.82
2023-04-21T21:44:45.109Z,17.31
2023-04-21T21:47:14.529Z,17.23
2023-04-21T21:49:44.123Z,17.15
2023-04-21T21:52:15.142Z,17.22
2023-04-21T21:54:47.218Z,17.18
2023-04-21T21:57:17.042Z,17.13
2023-04-21T21:59:47.245Z,17.05
2023-04-21T22:02:16.755Z,16.88
2023-04-21T22:04:46.352Z,17.15
2023-04-21T22:07:15.994Z,17.20
2023-04-21T22:09:48.056Z,17.05
2023-04-21T22:12:17.504Z,16.84
2023-04-21T22:14:47.313Z,17.02
2023-04-21T22:17:17.675Z,17.03
2023-04-21T22:19:47.710Z,16.96
2023-04-21T22:22:18.013Z,17.03
2023-04-21T22:24:50.287Z,17.07
2023-04-21T22:27:19.754Z,17.13
2023-04-21T22:29:49.205Z,17.08
2023-04-21T22:32:18.618Z,17.04
2023-04-21T22:34:48.010Z,16.84
2023-04-21T22:37:17.389Z,16.97
2023-04-21T22:39:46.790Z,16.99
2023-04-21T22:42:18.894Z,17.00
2023-04-21T22:44:48.509Z,16.91
2023-04-21T22:47:17.951Z,16.97
2023-04-21T22:49:47.354Z,16.79
2023-04-21T22:52:16.937Z,16.70
2023-04-21T22:54:46.356Z,16.88
2023-04-21T22:57:18.429Z,16.96
2023-04-21T22:59:48.103Z,16.56
2023-04-21T23:02:17.657Z,16.73
2023-04-21T23:04:47.171Z,16.65
2023-04-21T23:07:16.590Z,16.71
2023-04-21T23:09:46.087Z,16.68
2023-04-21T23:12:18.238Z,16.70
2023-04-21T23:14:48.480Z,16.71
2023-04-21T23:17:18.012Z,16.65
2023-04-21T23:19:47.531Z,16.65
2023-04-21T23:22:17.217Z,16.65
2023-04-21T23:24:46.834Z,16.61
2023-04-21T23:27:18.903Z,16.66
2023-04-21T23:29:48.448Z,16.58
2023-04-21T23:32:17.997Z,16.62
2023-04-21T23:34:47.488Z,16.60
2023-04-21T23:37:17.018Z,16.70
2023-04-21T23:39:46.527Z,16.62
2023-04-21T23:42:18.693Z,16.57
2023-04-21T23:44:48.248Z,16.43
2023-04-21T23:47:17.694Z,16.56
2023-04-21T23:49:47.389Z,16.42
2023-04-21T23:52:17.058Z,16.39
2023-04-21T23:54:46.571Z,16.39
2023-04-21T23:57:18.719Z,16.31
2023-04-21T23:59:48.189Z,16.40
